createdAt,value
2023-02-15T00:00:00.671Z,1.20
2023-02-15T00:03:09.224Z,1.11
2023-02-15T00:06:17.864Z,1.06
2023-02-15T00:08:46.138Z,1.00
2023-02-15T00:12:12.728Z,0.95
2023-02-15T00:14:43.124Z,0.91
2023-02-15T00:17:22.310Z,0.89
2023-02-15T00:20:30.774Z,0.87
2023-02-15T00:22:59.474Z,0.85
2023-02-15T00:26:07.758Z,0.84
2023-02-15T00:29:06.268Z,0.86
2023-02-15T00:32:05.588Z,0.88
2023-02-15T00:34:36.954Z,0.88
2023-02-15T00:37:45.354Z,0.88
2023-02-15T00:40:23.768Z,0.89
2023-02-15T00:43:05.887Z,0.89
2023-02-15T00:45:43.255Z,0.90
2023-02-15T00:48:13.892Z,0.91
2023-02-15T00:51:12.383Z,0.91
2023-02-15T00:54:03.603Z,0.91
2023-02-15T00:57:11.990Z,0.89
2023-02-15T00:59:54.401Z,0.86
2023-02-15T01:02:39.870Z,0.82
2023-02-15T01:05:40.870Z,0.77
2023-02-15T01:08:12.239Z,0.71
2023-02-15T01:10:42.881Z,0.67
2023-02-15T01:13:11.114Z,0.62
2023-02-15T01:15:39.206Z,0.59
2023-02-15T01:18:07.328Z,0.55
2023-02-15T01:20:39.955Z,0.54
2023-02-15T01:23:10.185Z,0.53
2023-02-15T01:25:42.527Z,0.51
2023-02-15T01:28:34.027Z,0.49
2023-02-15T01:31:42.457Z,0.49
2023-02-15T01:34:13.124Z,0.51
2023-02-15T01:36:44.014Z,0.52
2023-02-15T01:39:26.789Z,0.52
2023-02-15T01:42:05.527Z,0.54
2023-02-15T01:45:12.376Z,0.56
2023-02-15T01:47:49.080Z,0.59
2023-02-15T01:50:26.954Z,0.61
2023-02-15T01:53:40.524Z,0.58
2023-02-15T01:56:36.982Z,0.53
2023-02-15T01:59:36.686Z,0.46
2023-02-15T02:02:21.819Z,0.44
2023-02-15T02:05:11.160Z,0.41
2023-02-15T02:07:54.087Z,0.34
2023-02-15T02:10:46.586Z,0.29
2023-02-15T02:13:37.149Z,0.26
2023-02-15T02:16:57.927Z,0.23
2023-02-15T02:19:54.411Z,0.19
2023-02-15T02:22:53.087Z,0.14
2023-02-15T02:25:53.605Z,0.11
2023-02-15T02:29:00.436Z,0.07
2023-02-15T02:32:26.971Z,0.06
2023-02-15T02:35:41.650Z,0.06
2023-02-15T02:38:42.916Z,0.06
2023-02-15T02:41:13.889Z,0.06
2023-02-15T02:44:05.162Z,0.05
2023-02-15T02:47:10.024Z,0.05
2023-02-15T02:50:18.392Z,0.02
2023-02-15T02:53:26.895Z,0.02
2023-02-15T02:56:35.213Z,0.05
2023-02-15T02:59:29.301Z,0.08
2023-02-15T03:02:37.551Z,0.07
2023-02-15T03:05:46.045Z,0.00
2023-02-15T03:08:54.405Z,-0.09
2023-02-15T03:12:02.999Z,-0.13
2023-02-15T03:14:52.106Z,-0.19
2023-02-15T03:17:52.891Z,-0.25
2023-02-15T03:21:04.337Z,-0.30
2023-02-15T03:24:12.935Z,-0.30
2023-02-15T03:26:56.779Z,-0.32
2023-02-15T03:30:03.588Z,-0.32
2023-02-15T03:32:44.860Z,-0.31
2023-02-15T03:35:42.206Z,-0.30
2023-02-15T03:38:41.344Z,-0.31
2023-02-15T03:41:49.746Z,-0.32
2023-02-15T03:44:57.537Z,-0.33
2023-02-15T03:47:55.985Z,-0.34
2023-02-15T03:51:11.789Z,-0.33
2023-02-15T03:53:46.024Z,-0.32
2023-02-15T03:56:34.229Z,-0.33
2023-02-15T03:59:41.180Z,-0.36
2023-02-15T04:02:45.864Z,-0.43
2023-02-15T04:05:16.951Z,-0.44
2023-02-15T04:08:06.988Z,-0.46
2023-02-15T04:11:15.963Z,-0.48
2023-02-15T04:14:08.665Z,-0.52
2023-02-15T04:16:59.642Z,-0.51
2023-02-15T04:20:06.505Z,-0.48
2023-02-15T04:23:04.338Z,-0.49
2023-02-15T04:25:55.795Z,-0.48
2023-02-15T04:29:04.237Z,-0.46
2023-02-15T04:32:12.583Z,-0.43
2023-02-15T04:35:21.009Z,-0.39
2023-02-15T04:38:29.239Z,-0.38
2023-02-15T04:41:37.558Z,-0.35
2023-02-15T04:44:46.523Z,-0.33
2023-02-15T04:47:54.844Z,-0.40
2023-02-15T04:50:45.656Z,-0.48
2023-02-15T04:53:33.964Z,-0.47
2023-02-15T04:56:42.223Z,-0.45
2023-02-15T04:59:53.524Z,-0.41
2023-02-15T05:03:01.250Z,-0.36
2023-02-15T05:05:52.513Z,-0.33
2023-02-15T05:08:59.980Z,-0.32
2023-02-15T05:11:58.107Z,-0.34
2023-02-15T05:14:57.472Z,-0.32
2023-02-15T05:17:29.457Z,-0.29
2023-02-15T05:20:37.764Z,-0.27
2023-02-15T05:23:27.860Z,-0.24
2023-02-15T05:26:34.781Z,-0.22
2023-02-15T05:29:38.277Z,-0.14
2023-02-15T05:32:29.317Z,-0.05
2023-02-15T05:35:37.910Z,0.03
2023-02-15T05:38:25.739Z,0.12
2023-02-15T05:40:53.791Z,0.16
2023-02-15T05:43:45.325Z,0.18
2023-02-15T05:46:52.441Z,0.21
2023-02-15T05:49:29.906Z,0.22
2023-02-15T05:52:38.715Z,0.22
2023-02-15T05:55:09.760Z,0.24
2023-02-15T05:57:49.222Z,0.27
2023-02-15T06:00:50.916Z,0.32
2023-02-15T06:03:31.682Z,0.34
2023-02-15T06:06:05.496Z,0.39
2023-02-15T06:08:53.693Z,0.40
2023-02-15T06:11:24.631Z,0.41
2023-02-15T06:13:55.911Z,0.42
2023-02-15T06:16:27.186Z,0.46
2023-02-15T06:19:07.933Z,0.55
2023-02-15T06:22:05.213Z,0.62
2023-02-15T06:25:04.948Z,0.69
2023-02-15T06:27:55.870Z,0.75
2023-02-15T06:31:01.077Z,0.78
2023-02-15T06:34:09.980Z,0.77
2023-02-15T06:36:45.733Z,0.75
2023-02-15T06:39:37.231Z,0.73
2023-02-15T06:42:10.908Z,0.71
2023-02-15T06:45:08.459Z,0.70
2023-02-15T06:48:07.905Z,0.65
2023-02-15T06:50:57.696Z,0.57
2023-02-15T06:53:49.127Z,0.54
2023-02-15T06:56:17.224Z,0.52
2023-02-15T06:58:54.441Z,0.47
2023-02-15T07:01:31.580Z,0.45
2023-02-15T07:04:19.957Z,0.44
2023-02-15T07:06:52.703Z,0.43
2023-02-15T07:09:42.177Z,0.42
2023-02-15T07:12:39.087Z,0.44
2023-02-15T07:15:08.801Z,0.50
2023-02-15T07:17:42.408Z,0.59
2023-02-15T07:20:13.905Z,0.65
2023-02-15T07:22:54.777Z,0.69
2023-02-15T07:25:42.066Z,0.74
2023-02-15T07:28:27.540Z,0.80
2023-02-15T07:31:34.363Z,0.84
2023-02-15T07:34:42.902Z,0.89
2023-02-15T07:37:34.087Z,0.91
2023-02-15T07:40:24.452Z,0.91
2023-02-15T07:43:12.900Z,0.89
2023-02-15T07:46:21.310Z,0.88
2023-02-15T07:48:49.555Z,0.91
2023-02-15T07:51:47.840Z,0.97
2023-02-15T07:54:18.685Z,1.07
2023-02-15T07:57:10.069Z,1.14
2023-02-15T07:59:58.684Z,1.23
2023-02-15T08:03:01.545Z,1.31
2023-02-15T08:06:03.532Z,1.39
2023-02-15T08:09:04.336Z,1.48
2023-02-15T08:11:51.865Z,1.58
2023-02-15T08:14:54.214Z,1.68
2023-02-15T08:18:02.591Z,1.79
2023-02-15T08:20:50.777Z,1.94
2023-02-15T08:23:27.970Z,2.07
2023-02-15T08:26:08.434Z,2.20
2023-02-15T08:28:53.277Z,2.34
2023-02-15T08:31:47.443Z,2.51
2023-02-15T08:34:28.257Z,2.67
2023-02-15T08:37:16.102Z,2.83
2023-02-15T08:40:24.523Z,3.02
2023-02-15T08:43:33.020Z,3.22
2023-02-15T08:46:41.365Z,3.44
2023-02-15T08:49:24.382Z,3.65
2023-02-15T08:52:32.940Z,3.81
2023-02-15T08:55:14.385Z,3.99
2023-02-15T08:57:56.701Z,4.13
2023-02-15T09:00:47.848Z,4.27
2023-02-15T09:03:33.177Z,4.39
2023-02-15T09:06:22.792Z,4.49
2023-02-15T09:09:20.243Z,4.60
2023-02-15T09:12:10.402Z,4.70
2023-02-15T09:15:01.821Z,4.78
2023-02-15T09:18:03.827Z,4.86
2023-02-15T09:21:05.066Z,4.94
2023-02-15T09:23:53.330Z,5.02
2023-02-15T09:26:47.392Z,5.11
2023-02-15T09:29:46.551Z,5.20
2023-02-15T09:32:57.668Z,5.27
2023-02-15T09:35:48.678Z,5.38
2023-02-15T09:38:17.988Z,5.46
2023-02-15T09:41:09.068Z,5.53
2023-02-15T09:44:03.048Z,5.60
2023-02-15T09:47:05.917Z,5.69
2023-02-15T09:49:55.831Z,5.81
2023-02-15T09:52:29.464Z,5.91
2023-02-15T09:55:12.758Z,5.99
2023-02-15T09:58:07.320Z,6.06
2023-02-15T10:01:31.118Z,6.15
2023-02-15T10:04:45.547Z,6.24
2023-02-15T10:08:09.286Z,6.33
2023-02-15T10:11:17.710Z,6.44
2023-02-15T10:14:26.023Z,6.57
2023-02-15T10:17:34.391Z,6.70
2023-02-15T10:20:27.102Z,6.85
2023-02-15T10:23:35.507Z,6.97
2023-02-15T10:26:03.767Z,7.08
2023-02-15T10:29:02.368Z,7.15
2023-02-15T10:32:08.430Z,7.26
2023-02-15T10:35:13.732Z,7.37
2023-02-15T10:38:34.304Z,7.51
2023-02-15T10:41:35.439Z,7.61
2023-02-15T10:44:53.064Z,7.68
2023-02-15T10:48:02.733Z,7.79
2023-02-15T10:51:07.204Z,7.87
2023-02-15T10:54:27.808Z,7.92
2023-02-15T10:57:38.920Z,7.98
2023-02-15T11:00:50.242Z,8.08
2023-02-15T11:03:53.734Z,8.21
2023-02-15T11:06:56.482Z,8.32
2023-02-15T11:09:50.133Z,8.45
2023-02-15T11:12:21.312Z,8.56
2023-02-15T11:14:56.662Z,8.67
2023-02-15T11:17:48.272Z,8.77
2023-02-15T11:20:43.834Z,8.87
2023-02-15T11:23:55.037Z,8.98
2023-02-15T11:26:56.820Z,9.09
2023-02-15T11:30:16.702Z,9.18
2023-02-15T11:33:18.156Z,9.28
2023-02-15T11:36:29.394Z,9.37
2023-02-15T11:39:43.746Z,9.45
2023-02-15T11:42:55.243Z,9.55
2023-02-15T11:46:03.909Z,9.63
2023-02-15T11:48:46.291Z,9.71
2023-02-15T11:51:47.961Z,9.80
2023-02-15T11:54:56.436Z,9.88
2023-02-15T11:58:14.123Z,9.97
2023-02-15T12:01:16.390Z,10.05
2023-02-15T12:04:17.684Z,10.18
2023-02-15T12:07:05.863Z,10.26
2023-02-15T12:10:17.125Z,10.34
2023-02-15T12:12:47.905Z,10.44
2023-02-15T12:15:38.255Z,10.50
2023-02-15T12:18:08.467Z,10.56
2023-02-15T12:21:17.021Z,10.62
2023-02-15T12:24:29.234Z,10.69
2023-02-15T12:27:17.702Z,10.76
2023-02-15T12:30:17.378Z,10.83
2023-02-15T12:33:11.980Z,10.88
2023-02-15T12:35:40.089Z,10.94
2023-02-15T12:38:14.165Z,10.99
2023-02-15T12:41:07.306Z,11.04
2023-02-15T12:44:15.813Z,11.09
2023-02-15T12:47:17.050Z,11.15
2023-02-15T12:49:48.507Z,11.22
2023-02-15T12:53:00.181Z,11.27
2023-02-15T12:55:48.392Z,11.34
2023-02-15T12:58:50.297Z,11.38
2023-02-15T13:01:46.116Z,11.45
2023-02-15T13:04:40.241Z,11.52
2023-02-15T13:07:11.592Z,11.61
2023-02-15T13:09:49.715Z,11.65
2023-02-15T13:13:02.189Z,11.70
2023-02-15T13:16:13.391Z,11.76
2023-02-15T13:19:24.827Z,11.82
2023-02-15T13:22:16.401Z,11.88
2023-02-15T13:25:18.115Z,11.94
2023-02-15T13:27:50.305Z,11.99
2023-02-15T13:31:02.246Z,12.03
2023-02-15T13:33:57.632Z,12.09
2023-02-15T13:37:08.975Z,12.14
2023-02-15T13:40:29.695Z,12.20
2023-02-15T13:43:27.399Z,12.25
2023-02-15T13:46:11.072Z,12.31
2023-02-15T13:49:19.957Z,12.36
2023-02-15T13:52:30.829Z,12.43
2023-02-15T13:55:12.408Z,12.49
2023-02-15T13:58:35.913Z,12.55
2023-02-15T14:01:44.379Z,12.61
2023-02-15T14:05:11.220Z,12.67
2023-02-15T14:08:35.483Z,12.74
2023-02-15T14:11:29.666Z,12.80
2023-02-15T14:14:47.456Z,12.83
2023-02-15T14:17:55.478Z,12.89
2023-02-15T14:20:57.404Z,12.94
2023-02-15T14:23:50.388Z,12.97
2023-02-15T14:27:11.021Z,13.02
2023-02-15T14:30:22.361Z,13.07
2023-02-15T14:33:00.144Z,13.11
2023-02-15T14:35:53.543Z,13.17
2023-02-15T14:39:20.472Z,13.21
2023-02-15T14:42:15.383Z,13.26
2023-02-15T14:45:17.984Z,13.31
2023-02-15T14:47:50.572Z,13.34
2023-02-15T14:50:56.133Z,13.37
2023-02-15T14:53:41.705Z,13.39
2023-02-15T14:56:19.253Z,13.40
2023-02-15T14:58:57.334Z,13.40
2023-02-15T15:01:53.913Z,13.41
2023-02-15T15:04:34.373Z,13.40
2023-02-15T15:07:08.667Z,13.42
2023-02-15T15:09:39.876Z,13.41
2023-02-15T15:12:23.229Z,13.40
2023-02-15T15:14:51.817Z,13.36
2023-02-15T15:17:37.707Z,13.27
2023-02-15T15:20:14.775Z,13.21
2023-02-15T15:22:43.444Z,13.19
2023-02-15T15:25:12.019Z,13.20
2023-02-15T15:27:46.590Z,13.20
2023-02-15T15:30:14.987Z,13.21
2023-02-15T15:32:46.742Z,13.15
2023-02-15T15:35:14.833Z,13.09
2023-02-15T15:38:01.031Z,13.01
2023-02-15T15:40:36.128Z,12.93
2023-02-15T15:43:18.147Z,12.90
2023-02-15T15:46:05.532Z,12.93
2023-02-15T15:48:34.679Z,12.97
2023-02-15T15:51:37.208Z,13.00
2023-02-15T15:54:14.093Z,13.03
2023-02-15T15:56:44.481Z,13.05
2023-02-15T15:59:19.738Z,13.06
2023-02-15T16:01:48.050Z,13.04
2023-02-15T16:04:27.418Z,13.00
2023-02-15T16:06:55.202Z,12.94
2023-02-15T16:09:27.286Z,12.87
2023-02-15T16:12:03.667Z,12.80
2023-02-15T16:14:33.879Z,12.70
2023-02-15T16:17:04.819Z,12.63
2023-02-15T16:19:40.729Z,12.56
2023-02-15T16:22:16.351Z,12.48
2023-02-15T16:24:51.598Z,12.42
2023-02-15T16:27:35.056Z,12.34
2023-02-15T16:30:18.455Z,12.29
2023-02-15T16:32:46.940Z,12.23
2023-02-15T16:35:19.360Z,12.18
2023-02-15T16:37:47.351Z,12.13
2023-02-15T16:40:38.960Z,12.09
2023-02-15T16:43:11.534Z,12.04
2023-02-15T16:45:39.972Z,12.01
2023-02-15T16:48:12.571Z,11.98
2023-02-15T16:50:47.306Z,11.94
2023-02-15T16:53:18.517Z,11.91
2023-02-15T16:55:48.984Z,11.87
2023-02-15T16:58:18.691Z,11.83
2023-02-15T17:00:47.013Z,11.79
2023-02-15T17:03:15.039Z,11.75
2023-02-15T17:05:50.836Z,11.71
2023-02-15T17:08:18.811Z,11.68
2023-02-15T17:11:01.674Z,11.65
2023-02-15T17:13:29.990Z,11.63
2023-02-15T17:16:01.214Z,11.62
2023-02-15T17:18:33.870Z,11.61
2023-02-15T17:21:10.070Z,11.59
2023-02-15T17:23:46.327Z,11.58
2023-02-15T17:26:20.464Z,11.56
2023-02-15T17:28:52.752Z,11.55
2023-02-15T17:31:22.793Z,11.54
2023-02-15T17:33:51.655Z,11.52
2023-02-15T17:36:23.043Z,11.50
2023-02-15T17:39:13.894Z,11.49
2023-02-15T17:41:42.523Z,11.48
2023-02-15T17:44:14.872Z,11.46
2023-02-15T17:46:44.179Z,11.44
2023-02-15T17:49:23.699Z,11.44
2023-02-15T17:51:51.702Z,11.43
2023-02-15T17:54:38.087Z,11.41
2023-02-15T17:57:12.462Z,11.38
2023-02-15T17:59:59.313Z,11.35
2023-02-15T18:02:52.411Z,11.29
2023-02-15T18:05:39.423Z,11.25
2023-02-15T18:08:34.814Z,11.22
2023-02-15T18:11:21.335Z,11.20
2023-02-15T18:13:49.152Z,11.18
2023-02-15T18:16:20.469Z,11.17
2023-02-15T18:18:48.593Z,11.15
2023-02-15T18:21:16.780Z,11.13
2023-02-15T18:23:44.959Z,11.09
2023-02-15T18:26:16.549Z,11.04
2023-02-15T18:28:44.469Z,11.01
2023-02-15T18:31:12.963Z,10.98
2023-02-15T18:33:58.649Z,10.96
2023-02-15T18:36:28.582Z,10.94
2023-02-15T18:38:56.704Z,10.93
2023-02-15T18:41:25.348Z,10.92
2023-02-15T18:43:57.019Z,10.92
2023-02-15T18:46:25.334Z,10.92
2023-02-15T18:48:53.694Z,10.93
2023-02-15T18:51:24.590Z,10.94
2023-02-15T18:53:53.789Z,10.94
2023-02-15T18:56:22.934Z,10.95
2023-02-15T18:58:50.765Z,10.95
2023-02-15T19:01:20.422Z,10.96
2023-02-15T19:03:49.881Z,10.96
2023-02-15T19:06:19.709Z,10.95
2023-02-15T19:08:49.224Z,10.94
2023-02-15T19:11:19.066Z,10.92
2023-02-15T19:13:49.973Z,10.91
2023-02-15T19:16:28.512Z,10.88
2023-02-15T19:18:57.371Z,10.86
2023-02-15T19:21:25.890Z,10.83
2023-02-15T19:24:03.016Z,10.82
2023-02-15T19:26:44.596Z,10.81
2023-02-15T19:29:15.101Z,10.79
2023-02-15T19:31:43.378Z,10.77
2023-02-15T19:34:13.702Z,10.74
2023-02-15T19:36:42.455Z,10.72
2023-02-15T19:39:21.418Z,10.70
2023-02-15T19:41:49.480Z,10.69
2023-02-15T19:44:18.649Z,10.67
2023-02-15T19:46:46.857Z,10.65
2023-02-15T19:49:14.708Z,10.63
2023-02-15T19:51:42.924Z,10.63
2023-02-15T19:54:37.140Z,10.61
2023-02-15T19:57:05.148Z,10.59
2023-02-15T19:59:34.224Z,10.58
2023-02-15T20:02:02.563Z,10.55
2023-02-15T20:04:31.276Z,10.52
2023-02-15T20:07:00.845Z,10.48
2023-02-15T20:09:31.280Z,10.44
2023-02-15T20:11:59.182Z,10.41
2023-02-15T20:14:27.737Z,10.37
2023-02-15T20:16:55.630Z,10.33
2023-02-15T20:19:23.855Z,10.26
2023-02-15T20:21:54.656Z,10.18
2023-02-15T20:24:24.765Z,10.12
2023-02-15T20:26:52.707Z,10.04
2023-02-15T20:29:20.948Z,9.99
2023-02-15T20:31:48.962Z,9.93
2023-02-15T20:34:17.043Z,9.87
2023-02-15T20:36:45.000Z,9.84
2023-02-15T20:39:23.283Z,9.82
2023-02-15T20:41:52.220Z,9.80
2023-02-15T20:44:29.224Z,9.78
2023-02-15T20:46:58.220Z,9.77
2023-02-15T20:49:27.506Z,9.73
2023-02-15T20:51:56.764Z,9.70
2023-02-15T20:54:26.154Z,9.64
2023-02-15T20:56:57.479Z,9.59
2023-02-15T20:59:27.112Z,9.55
2023-02-15T21:01:58.057Z,9.51
2023-02-15T21:04:31.637Z,9.46
2023-02-15T21:07:00.128Z,9.39
2023-02-15T21:09:28.477Z,9.35
2023-02-15T21:11:58.829Z,9.30
2023-02-15T21:14:27.225Z,9.23
2023-02-15T21:16:55.271Z,9.17
2023-02-15T21:19:24.580Z,9.11
2023-02-15T21:21:53.844Z,9.07
2023-02-15T21:24:24.460Z,9.03
2023-02-15T21:26:53.263Z,8.97
2023-02-15T21:29:26.630Z,8.91
2023-02-15T21:31:58.534Z,8.85
2023-02-15T21:34:26.538Z,8.79
2023-02-15T21:36:54.837Z,8.71
2023-02-15T21:39:24.242Z,8.64
2023-02-15T21:42:12.463Z,8.58
2023-02-15T21:44:59.039Z,8.50
2023-02-15T21:47:47.681Z,8.43
2023-02-15T21:50:35.716Z,8.38
2023-02-15T21:53:04.739Z,8.33
2023-02-15T21:55:33.000Z,8.29
2023-02-15T21:58:01.381Z,8.25
2023-02-15T22:00:30.947Z,8.22
2023-02-15T22:03:01.047Z,8.17
2023-02-15T22:05:33.614Z,8.11
2023-02-15T22:08:01.603Z,8.04
2023-02-15T22:10:31.228Z,7.98
2023-02-15T22:13:00.650Z,7.94
2023-02-15T22:15:31.789Z,7.91
2023-02-15T22:17:59.942Z,7.89
2023-02-15T22:20:29.475Z,7.86
2023-02-15T22:22:58.639Z,7.84
2023-02-15T22:25:27.394Z,7.83
2023-02-15T22:28:01.667Z,7.81
2023-02-15T22:30:32.504Z,7.78
2023-02-15T22:33:02.111Z,7.75
2023-02-15T22:35:31.833Z,7.72
2023-02-15T22:38:00.024Z,7.70
2023-02-15T22:40:30.366Z,7.66
2023-02-15T22:43:31.268Z,7.62
2023-02-15T22:46:01.583Z,7.58
2023-02-15T22:48:29.753Z,7.54
2023-02-15T22:50:57.776Z,7.52
2023-02-15T22:53:26.003Z,7.49
2023-02-15T22:55:55.357Z,7.44
2023-02-15T22:58:27.632Z,7.41
2023-02-15T23:00:55.633Z,7.36
2023-02-15T23:03:26.110Z,7.31
2023-02-15T23:05:54.570Z,7.28
2023-02-15T23:08:22.879Z,7.22
2023-02-15T23:11:16.276Z,7.19
2023-02-15T23:13:44.040Z,7.12
2023-02-15T23:16:14.498Z,7.07
2023-02-15T23:18:47.763Z,7.05
2023-02-15T23:21:15.643Z,7.01
2023-02-15T23:23:44.645Z,6.99
2023-02-15T23:26:36.101Z,6.97
2023-02-15T23:29:09.378Z,6.96
2023-02-15T23:31:40.360Z,6.96
2023-02-15T23:34:31.363Z,6.97
2023-02-15T23:37:14.410Z,6.99
2023-02-15T23:40:01.014Z,6.99
2023-02-15T23:42:30.308Z,6.99
2023-02-15T23:44:58.661Z,6.98
2023-02-15T23:47:52.842Z,6.99
2023-02-15T23:50:23.522Z,6.98
2023-02-15T23:52:51.943Z,6.98
2023-02-15T23:55:20.430Z,6.98
2023-02-15T23:57:49.460Z,6.97
